Huvudsida
METAR-TAF:

METAR-TAF

Flygplatser :

Palma de Mallorcas flygplats

Palma de Mallorca, Spanien

latitud: 39-33N, longitud: 002-44E, höjd: 4 m

Aktuellt väderrapport

Denna rapport gjordes för 16 minuter sedan, klockan 04:30 UTC
Vind 2 kt varierande vindriktning
Temperatur 20°C
Fuktighet 94%
Tryck 1019 hPa
Sikt 10 km eller mer
Inga moln under 1 500 m eller inga cumulonimbus

METAR: LEPA 230430Z VRB02KT CAVOK 20/19 Q1019 NOSIG

Tid: 06:46 (04:46 UTC)

Väderprognos

Denna rapport gjordes för 5 timmar och 46 minuter sedan, klockan 23:00 UTC
Prognos gäller från 23 kl. 00 UTC till 23 kl. 24 UTC
Vind 5 kt från nord/nordost
Sikt 10 km eller mer
Få moln på en höjd av 2000 ft
Blir
från 23 kl. 08 UTC till 23 kl. 10 UTC
Vind 10 kt från syd/sydväst
Blir
från 23 kl. 20 UTC till 23 kl. 22 UTC
Vind 3 kt varierande vindriktning

TAF: LEPA 222300Z 2300/2324 03005KT 9999 FEW020 TX30/2312Z TN19/2305Z BECMG 2308/2310 21010KT BECMG 2320/2322 VRB03KT

Aktuella väderrapporter och prognoser från 4000 flygplatser (METAR- och TAF-rapporter).

De tillgängliga stationerna syns som gula och röda prickar på kartan.

För musen över prickarna för att se namnen på stationerna.

Klicka sedan för att få väderrapporter och prognoser.

För att ändra kartan: Klicka på de gröna knapparna med ett svart kors på för att zooma in; den gröna knappen med ett streck på för att zooma ut; eller på de gröna pilarna för angränsande kartor.


METAR-TAF: